sensor_id;sensor_type;location;lat;lon;timestamp;temperature;humidity
25718;DHT22;13574;52.040;5.692;2023-03-23T00:01:49;14.50;99.90
25718;DHT22;13574;52.040;5.692;2023-03-23T00:04:16;14.50;99.90
25718;DHT22;13574;52.040;5.692;2023-03-23T00:06:42;14.60;99.90
25718;DHT22;13574;52.040;5.692;2023-03-23T00:09:13;14.60;99.90
25718;DHT22;13574;52.040;5.692;2023-03-23T00:11:41;14.60;99.90
25718;DHT22;13574;52.040;5.692;2023-03-23T00:14:08;14.60;99.90
25718;DHT22;13574;52.040;5.692;2023-03-23T00:16:38;14.60;99.90
25718;DHT22;13574;52.040;5.692;2023-03-23T00:19:07;14.60;99.90
25718;DHT22;13574;52.040;5.692;2023-03-23T00:21:37;14.80;99.90
25718;DHT22;13574;52.040;5.692;2023-03-23T00:24:09;14.70;99.90
25718;DHT22;13574;52.040;5.692;2023-03-23T00:26:36;14.80;99.90
25718;DHT22;13574;52.040;5.692;2023-03-23T00:29:07;14.60;99.90
25718;DHT22;13574;52.040;5.692;2023-03-23T00:31:33;14.70;99.90
25718;DHT22;13574;52.040;5.692;2023-03-23T00:34:02;14.70;99.90
25718;DHT22;13574;52.040;5.692;2023-03-23T00:36:30;14.70;99.90
25718;DHT22;13574;52.040;5.692;2023-03-23T00:38:56;14.70;99.90
25718;DHT22;13574;52.040;5.692;2023-03-23T00:41:25;14.80;99.90
25718;DHT22;13574;52.040;5.692;2023-03-23T00:43:55;14.80;99.90
25718;DHT22;13574;52.040;5.692;2023-03-23T00:46:22;14.60;99.90
25718;DHT22;13574;52.040;5.692;2023-03-23T00:48:48;14.60;99.90
25718;DHT22;13574;52.040;5.692;2023-03-23T00:51:16;14.20;99.90
25718;DHT22;13574;52.040;5.692;2023-03-23T00:53:43;14.00;99.90
25718;DHT22;13574;52.040;5.692;2023-03-23T00:56:09;14.00;99.90
25718;DHT22;13574;52.040;5.692;2023-03-23T00:58:35;14.10;99.90
25718;DHT22;13574;52.040;5.692;2023-03-23T01:01:02;13.90;99.90
25718;DHT22;13574;52.040;5.692;2023-03-23T01:03:27;13.80;99.90
25718;DHT22;13574;52.040;5.692;2023-03-23T01:05:54;13.80;99.90
25718;DHT22;13574;52.040;5.692;2023-03-23T01:08:21;13.80;99.90
25718;DHT22;13574;52.040;5.692;2023-03-23T01:10:48;13.90;99.90
25718;DHT22;13574;52.040;5.692;2023-03-23T01:13:14;14.00;99.90
25718;DHT22;13574;52.040;5.692;2023-03-23T01:15:40;14.10;99.90
25718;DHT22;13574;52.040;5.692;2023-03-23T01:18:07;14.20;99.90
25718;DHT22;13574;52.040;5.692;2023-03-23T01:20:34;14.30;99.90
25718;DHT22;13574;52.040;5.692;2023-03-23T01:23:00;14.30;99.90
25718;DHT22;13574;52.040;5.692;2023-03-23T01:25:27;14.20;99.90
25718;DHT22;13574;52.040;5.692;2023-03-23T01:27:53;14.20;99.90
25718;DHT22;13574;52.040;5.692;2023-03-23T01:30:19;14.30;99.90
25718;DHT22;13574;52.040;5.692;2023-03-23T01:32:45;14.20;99.90
25718;DHT22;13574;52.040;5.692;2023-03-23T01:35:13;14.20;99.90
25718;DHT22;13574;52.040;5.692;2023-03-23T01:37:39;14.20;99.90
25718;DHT22;13574;52.040;5.692;2023-03-23T01:40:05;14.40;99.90
25718;DHT22;13574;52.040;5.692;2023-03-23T01:42:36;14.40;99.90
25718;DHT22;13574;52.040;5.692;2023-03-23T01:45:25;14.50;99.90
25718;DHT22;13574;52.040;5.692;2023-03-23T01:50:24;14.50;99.90
25718;DHT22;13574;52.040;5.692;2023-03-23T01:52:52;14.50;99.90
25718;DHT22;13574;52.040;5.692;2023-03-23T01:55:20;14.40;99.90
25718;DHT22;13574;52.040;5.692;2023-03-23T01:57:47;14.40;99.90
25718;DHT22;13574;52.040;5.692;2023-03-23T02:00:13;14.50;99.90
25718;DHT22;13574;52.040;5.692;2023-03-23T02:02:43;14.40;99.90
25718;DHT22;13574;52.040;5.692;2023-03-23T02:05:14;14.50;99.90
25718;DHT22;13574;52.040;5.692;2023-03-23T02:07:41;14.60;99.90
25718;DHT22;13574;52.040;5.692;2023-03-23T02:10:08;14.50;99.90
25718;DHT22;13574;52.040;5.692;2023-03-23T02:12:33;14.40;99.90
25718;DHT22;13574;52.040;5.692;2023-03-23T02:15:00;14.30;99.90
25718;DHT22;13574;52.040;5.692;2023-03-23T02:21:08;14.40;99.90
25718;DHT22;13574;52.040;5.692;2023-03-23T02:32:03;14.70;99.90
25718;DHT22;13574;52.040;5.692;2023-03-23T02:34:27;14.70;99.90
25718;DHT22;13574;52.040;5.692;2023-03-23T02:37:02;14.70;99.90
25718;DHT22;13574;52.040;5.692;2023-03-23T02:39:47;14.60;99.90
25718;DHT22;13574;52.040;5.692;2023-03-23T02:42:22;14.60;99.90
25718;DHT22;13574;52.040;5.692;2023-03-23T02:44:50;14.60;99.90
25718;DHT22;13574;52.040;5.692;2023-03-23T02:47:22;14.70;99.90
25718;DHT22;13574;52.040;5.692;2023-03-23T02:49:51;14.70;99.90
25718;DHT22;13574;52.040;5.692;2023-03-23T02:52:22;14.70;99.90
25718;DHT22;13574;52.040;5.692;2023-03-23T02:54:51;14.70;99.90
25718;DHT22;13574;52.040;5.692;2023-03-23T02:57:18;14.70;99.90
25718;DHT22;13574;52.040;5.692;2023-03-23T02:59:45;14.70;99.90
25718;DHT22;13574;52.040;5.692;2023-03-23T03:02:28;14.70;99.90
25718;DHT22;13574;52.040;5.692;2023-03-23T03:08:13;14.70;99.90
25718;DHT22;13574;52.040;5.692;2023-03-23T03:11:05;14.70;99.90
25718;DHT22;13574;52.040;5.692;2023-03-23T03:13:55;14.50;99.90
25718;DHT22;13574;52.040;5.692;2023-03-23T03:16:38;14.80;99.90
25718;DHT22;13574;52.040;5.692;2023-03-23T03:19:24;14.70;99.90
25718;DHT22;13574;52.040;5.692;2023-03-23T03:21:53;14.90;99.90
25718;DHT22;13574;52.040;5.692;2023-03-23T03:24:20;15.00;99.90
25718;DHT22;13574;52.040;5.692;2023-03-23T03:26:50;15.00;99.90
25718;DHT22;13574;52.040;5.692;2023-03-23T03:29:20;14.90;99.90
25718;DHT22;13574;52.040;5.692;2023-03-23T03:31:47;14.90;99.90
25718;DHT22;13574;52.040;5.692;2023-03-23T03:34:15;14.80;99.90
25718;DHT22;13574;52.040;5.692;2023-03-23T03:36:44;14.80;99.90
25718;DHT22;13574;52.040;5.692;2023-03-23T03:39:12;14.80;99.90
25718;DHT22;13574;52.040;5.692;2023-03-23T03:41:40;14.80;99.90
25718;DHT22;13574;52.040;5.692;2023-03-23T03:44:06;14.50;99.90
25718;DHT22;13574;52.040;5.692;2023-03-23T03:46:34;14.70;99.90
25718;DHT22;13574;52.040;5.692;2023-03-23T03:49:01;14.60;99.90
25718;DHT22;13574;52.040;5.692;2023-03-23T03:51:28;14.70;99.90
25718;DHT22;13574;52.040;5.692;2023-03-23T03:53:54;14.80;99.90
25718;DHT22;13574;52.040;5.692;2023-03-23T03:56:21;14.80;99.90
25718;DHT22;13574;52.040;5.692;2023-03-23T03:58:51;15.00;99.90
25718;DHT22;13574;52.040;5.692;2023-03-23T04:01:18;14.90;99.90
25718;DHT22;13574;52.040;5.692;2023-03-23T04:03:46;15.00;99.90
25718;DHT22;13574;52.040;5.692;2023-03-23T04:06:12;15.20;99.90
25718;DHT22;13574;52.040;5.692;2023-03-23T04:08:38;15.20;99.90
25718;DHT22;13574;52.040;5.692;2023-03-23T04:11:07;15.20;99.90
25718;DHT22;13574;52.040;5.692;2023-03-23T04:13:32;15.20;99.90
25718;DHT22;13574;52.040;5.692;2023-03-23T04:15:58;15.20;99.90
25718;DHT22;13574;52.040;5.692;2023-03-23T04:18:24;15.20;99.90
25718;DHT22;13574;52.040;5.692;2023-03-23T04:20:50;15.00;99.90
25718;DHT22;13574;52.040;5.692;2023-03-23T04:23:17;15.10;99.90
25718;DHT22;13574;52.040;5.692;2023-03-23T04:25:50;15.10;99.90
25718;DHT22;13574;52.040;5.692;2023-03-23T04:28:17;15.00;99.90
25718;DHT22;13574;52.040;5.692;2023-03-23T04:30:44;15.00;99.90
25718;DHT22;13574;52.040;5.692;2023-03-23T04:33:11;15.10;99.90
25718;DHT22;13574;52.040;5.692;2023-03-23T04:35:41;15.20;99.90
25718;DHT22;13574;52.040;5.692;2023-03-23T04:38:08;15.10;99.90
25718;DHT22;13574;52.040;5.692;2023-03-23T04:40:38;15.10;99.90
25718;DHT22;13574;52.040;5.692;2023-03-23T04:43:05;15.10;99.90
25718;DHT22;13574;52.040;5.692;2023-03-23T04:45:32;15.10;99.90
25718;DHT22;13574;52.040;5.692;2023-03-23T04:47:58;14.90;99.90
25718;DHT22;13574;52.040;5.692;2023-03-23T04:50:28;14.90;99.90
25718;DHT22;13574;52.040;5.692;2023-03-23T04:52:56;14.70;99.90
25718;DHT22;13574;52.040;5.692;2023-03-23T04:55:24;14.90;99.90
25718;DHT22;13574;52.040;5.692;2023-03-23T04:57:50;14.90;99.90
25718;DHT22;13574;52.040;5.692;2023-03-23T05:00:16;15.00;99.90
25718;DHT22;13574;52.040;5.692;2023-03-23T05:02:45;14.80;99.90
25718;DHT22;13574;52.040;5.692;2023-03-23T05:05:13;14.90;99.90
25718;DHT22;13574;52.040;5.692;2023-03-23T05:07:40;15.10;99.90
25718;DHT22;13574;52.040;5.692;2023-03-23T05:10:08;15.10;99.90
25718;DHT22;13574;52.040;5.692;2023-03-23T05:12:34;15.10;99.90
25718;DHT22;13574;52.040;5.692;2023-03-23T05:15:00;15.10;99.90
25718;DHT22;13574;52.040;5.692;2023-03-23T05:17:26;15.20;99.90
25718;DHT22;13574;52.040;5.692;2023-03-23T05:19:52;15.30;99.90
25718;DHT22;13574;52.040;5.692;2023-03-23T05:22:18;15.30;99.90
25718;DHT22;13574;52.040;5.692;2023-03-23T05:24:49;15.20;99.90
25718;DHT22;13574;52.040;5.692;2023-03-23T05:27:17;15.20;99.90
25718;DHT22;13574;52.040;5.692;2023-03-23T05:29:45;14.90;99.90
25718;DHT22;13574;52.040;5.692;2023-03-23T05:32:14;14.90;99.90
25718;DHT22;13574;52.040;5.692;2023-03-23T05:34:40;14.90;99.90
25718;DHT22;13574;52.040;5.692;2023-03-23T05:37:08;14.90;99.90
25718;DHT22;13574;52.040;5.692;2023-03-23T05:39:35;14.80;99.90
25718;DHT22;13574;52.040;5.692;2023-03-23T05:42:01;14.70;99.90
25718;DHT22;13574;52.040;5.692;2023-03-23T05:44:27;14.70;99.90
25718;DHT22;13574;52.040;5.692;2023-03-23T05:46:52;14.70;99.90
25718;DHT22;13574;52.040;5.692;2023-03-23T05:49:18;14.60;99.90
25718;DHT22;13574;52.040;5.692;2023-03-23T05:51:45;14.60;99.90
25718;DHT22;13574;52.040;5.692;2023-03-23T05:54:15;14.80;99.90
25718;DHT22;13574;52.040;5.692;2023-03-23T05:56:41;14.80;99.90
25718;DHT22;13574;52.040;5.692;2023-03-23T05:59:08;14.70;99.90
25718;DHT22;13574;52.040;5.692;2023-03-23T06:01:34;14.80;99.90
25718;DHT22;13574;52.040;5.692;2023-03-23T06:03:59;14.90;99.90
25718;DHT22;13574;52.040;5.692;2023-03-23T06:06:29;14.90;99.90
25718;DHT22;13574;52.040;5.692;2023-03-23T06:08:56;14.80;99.90
25718;DHT22;13574;52.040;5.692;2023-03-23T06:11:22;14.80;99.90
25718;DHT22;13574;52.040;5.692;2023-03-23T06:13:49;14.80;99.90
25718;DHT22;13574;52.040;5.692;2023-03-23T06:16:15;14.80;99.90
25718;DHT22;13574;52.040;5.692;2023-03-23T06:18:41;14.80;99.90
25718;DHT22;13574;52.040;5.692;2023-03-23T06:21:08;14.90;99.90
25718;DHT22;13574;52.040;5.692;2023-03-23T06:23:35;15.00;99.90
25718;DHT22;13574;52.040;5.692;2023-03-23T06:26:03;15.00;99.90
25718;DHT22;13574;52.040;5.692;2023-03-23T06:28:30;15.20;99.90
25718;DHT22;13574;52.040;5.692;2023-03-23T06:31:02;15.20;99.90
25718;DHT22;13574;52.040;5.692;2023-03-23T06:33:30;15.20;99.90
25718;DHT22;13574;52.040;5.692;2023-03-23T06:35:56;15.00;99.90
25718;DHT22;13574;52.040;5.692;2023-03-23T06:38:23;15.10;99.90
25718;DHT22;13574;52.040;5.692;2023-03-23T06:40:54;14.90;99.90
25718;DHT22;13574;52.040;5.692;2023-03-23T06:43:21;15.10;99.90
25718;DHT22;13574;52.040;5.692;2023-03-23T06:45:47;15.30;99.90
25718;DHT22;13574;52.040;5.692;2023-03-23T06:48:13;15.40;99.90
25718;DHT22;13574;52.040;5.692;2023-03-23T06:50:45;15.30;99.90
25718;DHT22;13574;52.040;5.692;2023-03-23T06:53:12;15.50;99.90
25718;DHT22;13574;52.040;5.692;2023-03-23T06:55:38;15.50;99.90
25718;DHT22;13574;52.040;5.692;2023-03-23T06:58:05;15.70;99.90
25718;DHT22;13574;52.040;5.692;2023-03-23T07:00:32;15.70;99.90
25718;DHT22;13574;52.040;5.692;2023-03-23T07:02:58;15.60;99.90
25718;DHT22;13574;52.040;5.692;2023-03-23T07:05:24;15.20;99.90
25718;DHT22;13574;52.040;5.692;2023-03-23T07:07:50;15.30;99.90
25718;DHT22;13574;52.040;5.692;2023-03-23T07:10:16;15.20;99.90
25718;DHT22;13574;52.040;5.692;2023-03-23T07:12:42;15.30;99.90
25718;DHT22;13574;52.040;5.692;2023-03-23T07:15:09;15.40;99.90
25718;DHT22;13574;52.040;5.692;2023-03-23T07:17:37;15.50;99.90
25718;DHT22;13574;52.040;5.692;2023-03-23T07:20:03;15.40;99.90
25718;DHT22;13574;52.040;5.692;2023-03-23T07:22:30;15.50;99.90
25718;DHT22;13574;52.040;5.692;2023-03-23T07:24:56;15.70;99.90
25718;DHT22;13574;52.040;5.692;2023-03-23T07:27:21;15.80;99.90
25718;DHT22;13574;52.040;5.692;2023-03-23T07:29:47;15.70;99.90
25718;DHT22;13574;52.040;5.692;2023-03-23T07:32:13;15.70;99.90
25718;DHT22;13574;52.040;5.692;2023-03-23T07:34:39;15.80;99.90
25718;DHT22;13574;52.040;5.692;2023-03-23T07:37:05;15.90;99.90
25718;DHT22;13574;52.040;5.692;2023-03-23T07:39:34;15.90;99.90
25718;DHT22;13574;52.040;5.692;2023-03-23T07:42:03;15.80;99.90
25718;DHT22;13574;52.040;5.692;2023-03-23T07:44:29;15.80;99.90
25718;DHT22;13574;52.040;5.692;2023-03-23T07:46:54;15.80;99.90
25718;DHT22;13574;52.040;5.692;2023-03-23T07:49:20;15.80;99.90
25718;DHT22;13574;52.040;5.692;2023-03-23T07:51:46;15.60;99.90
25718;DHT22;13574;52.040;5.692;2023-03-23T07:54:12;15.90;99.90
25718;DHT22;13574;52.040;5.692;2023-03-23T07:56:38;16.00;99.90
25718;DHT22;13574;52.040;5.692;2023-03-23T07:59:07;16.00;99.90
25718;DHT22;13574;52.040;5.692;2023-03-23T08:01:33;15.90;99.90
25718;DHT22;13574;52.040;5.692;2023-03-23T08:03:59;15.60;99.90
25718;DHT22;13574;52.040;5.692;2023-03-23T08:06:25;15.60;99.90
25718;DHT22;13574;52.040;5.692;2023-03-23T08:08:52;15.40;99.90
25718;DHT22;13574;52.040;5.692;2023-03-23T08:11:18;15.50;99.90
25718;DHT22;13574;52.040;5.692;2023-03-23T08:13:45;15.60;99.90
25718;DHT22;13574;52.040;5.692;2023-03-23T08:16:11;15.30;99.90
25718;DHT22;13574;52.040;5.692;2023-03-23T08:18:37;15.30;99.90
25718;DHT22;13574;52.040;5.692;2023-03-23T08:21:05;14.90;99.90
25718;DHT22;13574;52.040;5.692;2023-03-23T08:23:32;14.70;99.90
25718;DHT22;13574;52.040;5.692;2023-03-23T08:25:58;14.50;99.90
25718;DHT22;13574;52.040;5.692;2023-03-23T08:28:24;14.60;99.90
25718;DHT22;13574;52.040;5.692;2023-03-23T08:30:50;14.50;99.90
25718;DHT22;13574;52.040;5.692;2023-03-23T08:33:16;14.60;99.90
25718;DHT22;13574;52.040;5.692;2023-03-23T08:35:42;14.70;99.90
25718;DHT22;13574;52.040;5.692;2023-03-23T08:38:12;14.60;99.90
25718;DHT22;13574;52.040;5.692;2023-03-23T08:40:39;14.70;99.90
25718;DHT22;13574;52.040;5.692;2023-03-23T08:43:05;15.10;99.90
25718;DHT22;13574;52.040;5.692;2023-03-23T08:45:31;15.10;99.90
25718;DHT22;13574;52.040;5.692;2023-03-23T08:47:57;15.30;99.90
25718;DHT22;13574;52.040;5.692;2023-03-23T08:50:26;15.50;99.90
25718;DHT22;13574;52.040;5.692;2023-03-23T08:52:53;15.50;99.90
25718;DHT22;13574;52.040;5.692;2023-03-23T08:55:20;15.40;99.90
25718;DHT22;13574;52.040;5.692;2023-03-23T08:57:46;15.50;99.90
25718;DHT22;13574;52.040;5.692;2023-03-23T09:00:15;15.40;99.90
25718;DHT22;13574;52.040;5.692;2023-03-23T09:02:49;15.30;99.90
25718;DHT22;13574;52.040;5.692;2023-03-23T09:05:17;15.30;99.90
25718;DHT22;13574;52.040;5.692;2023-03-23T09:07:45;15.30;99.90
25718;DHT22;13574;52.040;5.692;2023-03-23T09:10:12;15.20;99.90
25718;DHT22;13574;52.040;5.692;2023-03-23T09:12:39;15.60;99.90
25718;DHT22;13574;52.040;5.692;2023-03-23T09:15:06;15.40;99.90
25718;DHT22;13574;52.040;5.692;2023-03-23T09:17:44;15.40;99.90
25718;DHT22;13574;52.040;5.692;2023-03-23T09:20:11;15.70;99.90
25718;DHT22;13574;52.040;5.692;2023-03-23T09:22:43;15.90;99.90
25718;DHT22;13574;52.040;5.692;2023-03-23T09:25:12;16.40;99.90
25718;DHT22;13574;52.040;5.692;2023-03-23T09:27:39;16.50;99.90
25718;DHT22;13574;52.040;5.692;2023-03-23T09:30:07;16.80;99.90
25718;DHT22;13574;52.040;5.692;2023-03-23T09:32:34;16.90;99.90
25718;DHT22;13574;52.040;5.692;2023-03-23T09:35:06;17.30;99.90
25718;DHT22;13574;52.040;5.692;2023-03-23T09:37:37;17.40;99.90
25718;DHT22;13574;52.040;5.692;2023-03-23T09:40:05;17.50;99.90
25718;DHT22;13574;52.040;5.692;2023-03-23T09:45:45;17.60;99.90
25718;DHT22;13574;52.040;5.692;2023-03-23T09:54:18;17.90;99.90
25718;DHT22;13574;52.040;5.692;2023-03-23T09:56:45;17.50;99.90
25718;DHT22;13574;52.040;5.692;2023-03-23T10:02:04;17.60;99.90
25718;DHT22;13574;52.040;5.692;2023-03-23T10:04:49;17.50;99.90
25718;DHT22;13574;52.040;5.692;2023-03-23T10:07:22;17.20;99.90
25718;DHT22;13574;52.040;5.692;2023-03-23T10:09:55;16.80;99.90
25718;DHT22;13574;52.040;5.692;2023-03-23T10:12:30;16.60;99.90
25718;DHT22;13574;52.040;5.692;2023-03-23T10:15:09;16.70;99.90
25718;DHT22;13574;52.040;5.692;2023-03-23T10:17:48;16.80;99.90
25718;DHT22;13574;52.040;5.692;2023-03-23T10:20:31;17.20;99.90
25718;DHT22;13574;52.040;5.692;2023-03-23T10:25:34;17.00;99.90
25718;DHT22;13574;52.040;5.692;2023-03-23T10:30:52;17.00;99.90
25718;DHT22;13574;52.040;5.692;2023-03-23T10:38:39;17.50;99.90
25718;DHT22;13574;52.040;5.692;2023-03-23T10:41:15;17.70;99.90
25718;DHT22;13574;52.040;5.692;2023-03-23T10:43:45;17.70;99.90
25718;DHT22;13574;52.040;5.692;2023-03-23T10:49:00;17.70;99.90
25718;DHT22;13574;52.040;5.692;2023-03-23T10:51:36;17.60;99.90
25718;DHT22;13574;52.040;5.692;2023-03-23T10:54:04;17.50;99.90
25718;DHT22;13574;52.040;5.692;2023-03-23T10:56:44;17.60;99.90
25718;DHT22;13574;52.040;5.692;2023-03-23T10:59:30;17.70;99.90
25718;DHT22;13574;52.040;5.692;2023-03-23T11:02:02;17.40;99.90
25718;DHT22;13574;52.040;5.692;2023-03-23T11:04:31;17.40;99.90
25718;DHT22;13574;52.040;5.692;2023-03-23T11:07:00;17.50;99.90
25718;DHT22;13574;52.040;5.692;2023-03-23T11:09:39;17.40;99.90
25718;DHT22;13574;52.040;5.692;2023-03-23T11:12:20;17.30;99.90
25718;DHT22;13574;52.040;5.692;2023-03-23T11:14:47;17.20;99.90
25718;DHT22;13574;52.040;5.692;2023-03-23T11:17:24;17.20;99.90
25718;DHT22;13574;52.040;5.692;2023-03-23T11:19:52;17.50;99.90
25718;DHT22;13574;52.040;5.692;2023-03-23T11:22:27;17.70;99.90
25718;DHT22;13574;52.040;5.692;2023-03-23T11:24:55;18.00;99.90
25718;DHT22;13574;52.040;5.692;2023-03-23T11:27:23;18.10;99.90
25718;DHT22;13574;52.040;5.692;2023-03-23T11:30:07;18.30;99.90
25718;DHT22;13574;52.040;5.692;2023-03-23T11:32:35;18.30;99.90
25718;DHT22;13574;52.040;5.692;2023-03-23T11:35:07;18.10;99.90
25718;DHT22;13574;52.040;5.692;2023-03-23T11:37:42;18.30;99.90
25718;DHT22;13574;52.040;5.692;2023-03-23T11:42:45;17.80;99.90
25718;DHT22;13574;52.040;5.692;2023-03-23T11:51:04;18.00;99.90
25718;DHT22;13574;52.040;5.692;2023-03-23T11:58:46;18.20;99.90
25718;DHT22;13574;52.040;5.692;2023-03-23T12:01:31;18.40;99.90
25718;DHT22;13574;52.040;5.692;2023-03-23T12:09:40;18.50;99.90
25718;DHT22;13574;52.040;5.692;2023-03-23T12:15:02;18.80;99.90
25718;DHT22;13574;52.040;5.692;2023-03-23T12:17:35;19.00;99.90
25718;DHT22;13574;52.040;5.692;2023-03-23T12:23:39;18.90;99.90
25718;DHT22;13574;52.040;5.692;2023-03-23T12:26:16;18.20;99.90
25718;DHT22;13574;52.040;5.692;2023-03-23T12:37:48;17.20;99.90
25718;DHT22;13574;52.040;5.692;2023-03-23T12:43:27;17.50;99.90
25718;DHT22;13574;52.040;5.692;2023-03-23T12:48:48;17.70;99.90
25718;DHT22;13574;52.040;5.692;2023-03-23T12:51:31;17.50;99.90
25718;DHT22;13574;52.040;5.692;2023-03-23T12:54:12;17.60;99.90
25718;DHT22;13574;52.040;5.692;2023-03-23T13:04:39;18.30;99.90
25718;DHT22;13574;52.040;5.692;2023-03-23T13:07:11;18.40;99.90
25718;DHT22;13574;52.040;5.692;2023-03-23T13:12:47;18.40;99.90
25718;DHT22;13574;52.040;5.692;2023-03-23T13:15:56;18.30;99.90
25718;DHT22;13574;52.040;5.692;2023-03-23T13:18:49;18.30;99.90
25718;DHT22;13574;52.040;5.692;2023-03-23T13:21:24;18.40;99.90
25718;DHT22;13574;52.040;5.692;2023-03-23T13:24:01;18.10;99.90
25718;DHT22;13574;52.040;5.692;2023-03-23T13:26:29;18.10;99.90
25718;DHT22;13574;52.040;5.692;2023-03-23T13:29:05;18.00;99.90
25718;DHT22;13574;52.040;5.692;2023-03-23T13:31:38;18.00;99.90
25718;DHT22;13574;52.040;5.692;2023-03-23T13:34:23;18.10;99.90
25718;DHT22;13574;52.040;5.692;2023-03-23T13:37:00;18.10;99.90
25718;DHT22;13574;52.040;5.692;2023-03-23T13:39:37;18.40;99.90
25718;DHT22;13574;52.040;5.692;2023-03-23T13:42:28;18.40;99.90
25718;DHT22;13574;52.040;5.692;2023-03-23T13:45:19;18.70;99.90
25718;DHT22;13574;52.040;5.692;2023-03-23T13:47:46;18.70;99.90
25718;DHT22;13574;52.040;5.692;2023-03-23T13:50:26;18.70;99.90
25718;DHT22;13574;52.040;5.692;2023-03-23T13:52:59;19.00;99.90
25718;DHT22;13574;52.040;5.692;2023-03-23T14:05:43;18.40;99.90
25718;DHT22;13574;52.040;5.692;2023-03-23T14:11:00;18.00;99.90
25718;DHT22;13574;52.040;5.692;2023-03-23T14:14:04;17.70;99.90
25718;DHT22;13574;52.040;5.692;2023-03-23T14:16:40;17.70;99.90
25718;DHT22;13574;52.040;5.692;2023-03-23T14:19:25;17.90;99.90
25718;DHT22;13574;52.040;5.692;2023-03-23T14:21:56;17.90;99.90
25718;DHT22;13574;52.040;5.692;2023-03-23T14:24:32;17.80;99.90
25718;DHT22;13574;52.040;5.692;2023-03-23T14:27:14;17.90;99.90
25718;DHT22;13574;52.040;5.692;2023-03-23T14:29:40;18.30;99.90
25718;DHT22;13574;52.040;5.692;2023-03-23T14:32:08;18.50;99.90
25718;DHT22;13574;52.040;5.692;2023-03-23T14:34:36;18.40;99.90
25718;DHT22;13574;52.040;5.692;2023-03-23T14:37:02;18.90;99.90
25718;DHT22;13574;52.040;5.692;2023-03-23T14:39:33;18.90;99.90
25718;DHT22;13574;52.040;5.692;2023-03-23T14:42:11;19.10;99.90
25718;DHT22;13574;52.040;5.692;2023-03-23T14:44:40;19.20;99.90
25718;DHT22;13574;52.040;5.692;2023-03-23T14:47:27;19.10;99.90
25718;DHT22;13574;52.040;5.692;2023-03-23T14:49:56;19.00;99.90
25718;DHT22;13574;52.040;5.692;2023-03-23T14:52:25;18.80;99.90
25718;DHT22;13574;52.040;5.692;2023-03-23T14:54:51;18.80;99.90
25718;DHT22;13574;52.040;5.692;2023-03-23T14:57:19;18.80;99.90
25718;DHT22;13574;52.040;5.692;2023-03-23T14:59:51;18.50;99.90
25718;DHT22;13574;52.040;5.692;2023-03-23T15:04:52;18.00;99.90
25718;DHT22;13574;52.040;5.692;2023-03-23T15:07:19;17.90;99.90
25718;DHT22;13574;52.040;5.692;2023-03-23T15:09:47;17.90;99.90
25718;DHT22;13574;52.040;5.692;2023-03-23T15:12:22;17.70;99.90
25718;DHT22;13574;52.040;5.692;2023-03-23T15:14:53;17.90;99.90
25718;DHT22;13574;52.040;5.692;2023-03-23T15:17:34;17.90;99.90
25718;DHT22;13574;52.040;5.692;2023-03-23T15:20:09;17.80;99.90
25718;DHT22;13574;52.040;5.692;2023-03-23T15:22:35;17.70;99.90
25718;DHT22;13574;52.040;5.692;2023-03-23T15:27:38;18.10;99.90
25718;DHT22;13574;52.040;5.692;2023-03-23T15:33:14;18.60;99.90
25718;DHT22;13574;52.040;5.692;2023-03-23T15:35:49;18.60;99.90
25718;DHT22;13574;52.040;5.692;2023-03-23T15:40:53;18.30;99.90
25718;DHT22;13574;52.040;5.692;2023-03-23T15:43:24;18.30;99.90
25718;DHT22;13574;52.040;5.692;2023-03-23T15:45:58;18.50;99.90
25718;DHT22;13574;52.040;5.692;2023-03-23T15:48:49;18.40;99.90
25718;DHT22;13574;52.040;5.692;2023-03-23T15:51:17;18.50;99.90
25718;DHT22;13574;52.040;5.692;2023-03-23T15:53:43;18.50;99.90
25718;DHT22;13574;52.040;5.692;2023-03-23T15:56:10;18.70;99.90
25718;DHT22;13574;52.040;5.692;2023-03-23T15:58:37;18.70;99.90
25718;DHT22;13574;52.040;5.692;2023-03-23T16:01:07;18.80;99.90
25718;DHT22;13574;52.040;5.692;2023-03-23T16:03:42;18.80;99.90
25718;DHT22;13574;52.040;5.692;2023-03-23T16:06:11;18.90;99.90
25718;DHT22;13574;52.040;5.692;2023-03-23T16:08:37;18.70;99.90
25718;DHT22;13574;52.040;5.692;2023-03-23T16:11:08;18.60;99.90
25718;DHT22;13574;52.040;5.692;2023-03-23T16:13:34;18.90;99.90
25718;DHT22;13574;52.040;5.692;2023-03-23T16:15:59;19.00;99.90
25718;DHT22;13574;52.040;5.692;2023-03-23T16:18:25;19.10;99.90
25718;DHT22;13574;52.040;5.692;2023-03-23T16:20:50;19.30;99.90
25718;DHT22;13574;52.040;5.692;2023-03-23T16:23:16;19.30;99.90
25718;DHT22;13574;52.040;5.692;2023-03-23T16:25:42;19.20;99.90
25718;DHT22;13574;52.040;5.692;2023-03-23T16:28:10;19.20;99.90
25718;DHT22;13574;52.040;5.692;2023-03-23T16:30:36;19.20;99.90
25718;DHT22;13574;52.040;5.692;2023-03-23T16:33:02;19.30;99.90
25718;DHT22;13574;52.040;5.692;2023-03-23T16:35:27;19.10;99.90
25718;DHT22;13574;52.040;5.692;2023-03-23T16:37:55;19.30;99.90
25718;DHT22;13574;52.040;5.692;2023-03-23T16:40:21;19.10;99.90
25718;DHT22;13574;52.040;5.692;2023-03-23T16:42:48;18.80;99.90
25718;DHT22;13574;52.040;5.692;2023-03-23T16:45:15;18.40;99.90
25718;DHT22;13574;52.040;5.692;2023-03-23T16:47:41;18.20;99.90
25718;DHT22;13574;52.040;5.692;2023-03-23T16:50:10;18.10;99.90
25718;DHT22;13574;52.040;5.692;2023-03-23T16:52:37;18.00;99.90
25718;DHT22;13574;52.040;5.692;2023-03-23T16:55:04;18.00;99.90
25718;DHT22;13574;52.040;5.692;2023-03-23T16:57:31;18.10;99.90
25718;DHT22;13574;52.040;5.692;2023-03-23T17:00:01;18.00;99.90
25718;DHT22;13574;52.040;5.692;2023-03-23T17:02:26;18.10;99.90
25718;DHT22;13574;52.040;5.692;2023-03-23T17:04:52;18.20;99.90
25718;DHT22;13574;52.040;5.692;2023-03-23T17:07:18;18.20;99.90
25718;DHT22;13574;52.040;5.692;2023-03-23T17:09:43;17.90;99.90
25718;DHT22;13574;52.040;5.692;2023-03-23T17:12:09;18.00;99.90
25718;DHT22;13574;52.040;5.692;2023-03-23T17:14:35;18.00;99.90
25718;DHT22;13574;52.040;5.692;2023-03-23T17:17:01;18.00;99.90
25718;DHT22;13574;52.040;5.692;2023-03-23T17:19:27;17.80;99.90
25718;DHT22;13574;52.040;5.692;2023-03-23T17:21:53;17.80;99.90
25718;DHT22;13574;52.040;5.692;2023-03-23T17:24:18;17.70;99.90
25718;DHT22;13574;52.040;5.692;2023-03-23T17:26:44;17.70;99.90
25718;DHT22;13574;52.040;5.692;2023-03-23T17:29:10;17.70;99.90
25718;DHT22;13574;52.040;5.692;2023-03-23T17:31:36;17.90;99.90
25718;DHT22;13574;52.040;5.692;2023-03-23T17:34:01;17.70;99.90
25718;DHT22;13574;52.040;5.692;2023-03-23T17:36:27;17.90;99.90
25718;DHT22;13574;52.040;5.692;2023-03-23T17:38:53;18.10;99.90
25718;DHT22;13574;52.040;5.692;2023-03-23T17:41:19;17.80;99.90
25718;DHT22;13574;52.040;5.692;2023-03-23T17:43:47;17.80;99.90